• Join FlightAware (Why Join?)
  • Login
  • US Flag 
07:21AM EST


 

Airport Tracker/Info


-or-


 

Live Flight TrackerFlight Track Log ✈ EJA131 ✈ 28-Apr-2013 ✈ KMIA - KTPA

Flight Track Log - Related Links

Times and Time Zones

All times are in EDT time to prevent confusion due to time zone crossing. See the EJA131 flight status page for this flight to view local times or setup timezone preferences in your user account.

Time Position Orientation Groundspeed Altitude Reporting Facility
EDT Latitude Longitude Course Direction KTS MPH feet Rate Location/Type
04:53PM 26.3603 -80.9189 318° Northwest 357 411 16,100  Level Miami Center
04:54PM 26.4311 -80.9956 316° Northwest 363 418 16,100 -60 Level Miami Center
04:55PM 26.5064 -81.0700 318° Northwest 368 423 16,000 -60 Descending Miami Center
04:56PM 26.5731 -81.1419 316° Northwest 368 423 16,000  Level Miami Center
04:57PM 26.6458 -81.2214 316° Northwest 368 423 16,000  Level Miami Center
04:58PM 26.8076 -81.3164 318° Northwest  Level Estimated
04:58PM 26.7267 -81.3081 316° Northwest 368 423 16,000  Level Miami Center
04:59PM 26.7994 -81.3853 317° Northwest 368 423 15,900 -60 Descending Miami Center
05:00PM 26.8744 -81.4650 317° Northwest 368 423 15,900  Level Miami Center
05:01PM 26.9408 -81.5375 316° Northwest 368 423 15,900  Level Miami Center
05:02PM 27.0133 -81.6197 315° West 368 423 15,900  Level Miami Center
05:03PM 27.0856 -81.7067 313° West 368 423 15,900  Level Miami Center
05:04PM 27.1558 -81.7889 314° West 368 423 15,900  Level Miami Center
05:05PM 27.2281 -81.8736 314° West 368 423 15,900 -300 Level Miami Center
05:06PM 27.2983 -81.9536 315° West 368 423 15,300 -1,320 Descending Miami Center
05:07PM 27.3706 -82.0389 314° West 368 423 13,300 -1,980 Descending Miami Center
05:08PM 27.4367 -82.1167 314° West 362 417 11,400 -1,200 Descending Miami Center
05:09PM 27.4944 -82.1847 314° West 330 380 11,000 -540 Descending Miami Center
05:10PM 27.5544 -82.2556 314° West 292 336 10,400 -1,140 Descending Miami Center
05:11PM 27.6083 -82.3258 311° West 287 330 8,800 -1,740 Descending Miami Center
05:12PM 27.6500 -82.3833 309° West 287 330 7,300 -1,920 Descending Tampa TRACON
05:13PM 27.7167 -82.4500 318° Northwest 278 320 5,300 -2,160 Descending Tampa TRACON
05:14PM 27.7667 -82.5000 319° Northwest 269 310 2,800 -1,320 Descending Tampa TRACON
05:15PM 27.8333 -82.5500 326° Northwest 247 284 2,600 -600 Descending Tampa TRACON
05:16PM 27.8833 -82.5500 360° North 183 211 1,700 -900 Descending Tampa TRACON
05:17PM 27.9167 -82.5500 360° North 152 175 900 -720 Descending Tampa TRACON
05:18PM 27.9500 -82.5500 360° North 130 150 300 -600 Descending Tampa TRACON
05:20PM 27.9755 -82.5332 21° North  Level Estimated
05:27PM 27.9755 -82.5332 190° South  Level Estimated